createdAt,value
2017-08-09T00:00:05.391Z,82.73
2017-08-09T00:01:05.686Z,83.3
2017-08-09T00:02:05.397Z,82.53
2017-08-09T00:03:05.690Z,82.53
2017-08-09T00:04:05.694Z,82.43
2017-08-09T00:05:05.726Z,82.05
2017-08-09T00:06:05.701Z,81.76
2017-08-09T00:07:05.707Z,82.53
2017-08-09T00:08:05.415Z,81.76
2017-08-09T00:09:05.705Z,82.15
2017-08-09T00:10:05.709Z,81.96
2017-08-09T00:11:05.412Z,81.67
2017-08-09T00:12:05.710Z,82.34
2017-08-09T00:13:05.710Z,82.05
2017-08-09T00:14:05.411Z,82.15
2017-08-09T00:15:05.717Z,82.24
2017-08-09T00:16:05.715Z,82.05
2017-08-09T00:17:05.720Z,82.05
2017-08-09T00:18:05.725Z,82.24
2017-08-09T00:19:05.428Z,82.15
2017-08-09T00:20:05.751Z,82.53
2017-08-09T00:21:05.730Z,82.34
2017-08-09T00:22:05.730Z,82.43
2017-08-09T00:23:05.732Z,82.63
2017-08-09T00:24:05.742Z,82.53
2017-08-09T00:25:05.775Z,82.63
2017-08-09T00:26:05.736Z,83.01
2017-08-09T00:27:05.740Z,83.4
2017-08-09T00:28:05.750Z,83.3
2017-08-09T00:29:05.748Z,83.87
2017-08-09T00:30:05.787Z,83.87
2017-08-09T00:31:05.751Z,83.69
2017-08-09T00:32:05.755Z,83.69
2017-08-09T00:33:05.760Z,84.36
2017-08-09T00:34:05.761Z,84.26
2017-08-09T00:35:05.766Z,84.26
2017-08-09T00:36:05.763Z,84.17
2017-08-09T00:37:05.764Z,84.45
2017-08-09T00:38:05.768Z,83.69
2017-08-09T00:39:05.771Z,83.87
2017-08-09T00:40:05.777Z,83.69
2017-08-09T00:41:05.780Z,83.97
2017-08-09T00:42:05.486Z,83.4
2017-08-09T00:43:05.789Z,83.69
2017-08-09T00:44:05.791Z,83.87
2017-08-09T00:45:05.794Z,83.69
2017-08-09T00:46:05.805Z,83.69
2017-08-09T00:47:05.786Z,83.78
2017-08-09T00:48:05.788Z,83.78
2017-08-09T00:49:05.495Z,84.45
2017-08-09T00:50:05.504Z,84.07
2017-08-09T00:51:05.797Z,83.87
2017-08-09T00:52:05.805Z,83.87
2017-08-09T00:53:05.798Z,83.87
2017-08-09T00:54:05.799Z,83.69
2017-08-09T00:55:05.799Z,83.59
2017-08-09T00:56:05.801Z,83.69
2017-08-09T00:57:05.821Z,83.59
2017-08-09T00:58:05.522Z,83.78
2017-08-09T00:59:05.826Z,84.07
2017-08-09T01:00:05.820Z,83.87
2017-08-09T01:01:05.823Z,83.87
2017-08-09T01:02:05.823Z,84.45
2017-08-09T01:03:05.825Z,84.26
2017-08-09T01:04:05.828Z,83.97
2017-08-09T01:05:05.531Z,84.17
2017-08-09T01:06:05.824Z,84.17
2017-08-09T01:07:05.868Z,83.97
2017-08-09T01:08:05.837Z,84.07
2017-08-09T01:09:05.838Z,83.97
2017-08-09T01:10:05.835Z,84.45
2017-08-09T01:11:05.841Z,84.64
2017-08-09T01:12:05.838Z,84.36
2017-08-09T01:13:05.843Z,83.97
2017-08-09T01:14:05.842Z,84.17
2017-08-09T01:15:05.842Z,84.36
2017-08-09T01:16:05.847Z,84.17
2017-08-09T01:17:05.848Z,84.07
2017-08-09T01:18:05.850Z,83.97
2017-08-09T01:19:05.853Z,84.22
2017-08-09T01:20:05.856Z,84.6
2017-08-09T01:21:05.862Z,84.99
2017-08-09T01:22:05.859Z,85.08
2017-08-09T01:23:05.861Z,84.7
2017-08-09T01:24:05.863Z,84.7
2017-08-09T01:25:05.866Z,84.99
2017-08-09T01:26:05.866Z,84.7
2017-08-09T01:27:05.874Z,84.89
2017-08-09T01:28:05.898Z,84.89
2017-08-09T01:29:05.872Z,84.51
2017-08-09T01:30:05.876Z,84.89
2017-08-09T01:31:05.879Z,84.6
2017-08-09T01:32:05.877Z,84.8
2017-08-09T01:33:05.579Z,85.18
2017-08-09T01:34:05.883Z,85.08
2017-08-09T01:35:05.900Z,84.7
2017-08-09T01:36:05.888Z,84.51
2017-08-09T01:37:05.910Z,85.47
2017-08-09T01:38:05.601Z,85.18
2017-08-09T01:39:05.906Z,85.37
2017-08-09T01:40:05.986Z,85.57
2017-08-09T01:41:05.900Z,85.57
2017-08-09T01:42:05.905Z,85.75
2017-08-09T01:43:05.905Z,86.05
2017-08-09T01:44:05.604Z,85.47
2017-08-09T01:45:05.663Z,85.57
2017-08-09T01:46:05.914Z,85.47
2017-08-09T01:47:05.916Z,85.85
2017-08-09T01:48:05.916Z,86.62
2017-08-09T01:49:05.914Z,86.52
2017-08-09T01:50:05.954Z,86.14
2017-08-09T01:51:05.929Z,86.33
2017-08-09T01:52:05.920Z,86.24
2017-08-09T01:53:05.924Z,86.48
2017-08-09T01:54:05.927Z,86.62
2017-08-09T01:55:05.928Z,86.52
2017-08-09T01:56:05.956Z,86.62
2017-08-09T01:57:05.938Z,86.52
2017-08-09T01:58:05.936Z,86.33
2017-08-09T01:59:05.938Z,86.77
2017-08-09T02:00:06.496Z,86.87
2017-08-09T02:01:05.942Z,87.39
2017-08-09T02:02:05.942Z,87.1
2017-08-09T02:03:05.945Z,86.52
2017-08-09T02:04:05.945Z,86.72
2017-08-09T02:05:05.946Z,86.91
2017-08-09T02:06:05.950Z,86.81
2017-08-09T02:07:05.957Z,86.58
2017-08-09T02:08:05.957Z,86.87
2017-08-09T02:09:05.657Z,87.05
2017-08-09T02:10:05.959Z,87.73
2017-08-09T02:11:05.963Z,87.35
2017-08-09T02:12:05.958Z,87.35
2017-08-09T02:13:05.973Z,87.82
2017-08-09T02:14:05.962Z,87.92
2017-08-09T02:15:06.014Z,88.21
2017-08-09T02:16:05.967Z,87.92
2017-08-09T02:17:05.969Z,87.92
2017-08-09T02:18:05.972Z,87.92
2017-08-09T02:19:05.980Z,88.21
2017-08-09T02:20:06.001Z,87.82
2017-08-09T02:21:05.978Z,88.59
2017-08-09T02:22:05.677Z,88.21
2017-08-09T02:23:05.979Z,88.4
2017-08-09T02:24:05.985Z,88.69
2017-08-09T02:25:06.012Z,88.4
2017-08-09T02:26:06.065Z,88.65
2017-08-09T02:27:05.985Z,89.26
2017-08-09T02:28:05.988Z,89.22
2017-08-09T02:29:05.988Z,89.51
2017-08-09T02:30:06.045Z,89.51
2017-08-09T02:31:05.995Z,89.99
2017-08-09T02:32:05.994Z,89.89
2017-08-09T02:33:05.998Z,89.89
2017-08-09T02:34:06.007Z,90.66
2017-08-09T02:35:05.999Z,90.56
2017-08-09T02:36:06.006Z,90.37
2017-08-09T02:37:05.704Z,90.37
2017-08-09T02:38:06.003Z,90.56
2017-08-09T02:39:06.007Z,90.75
2017-08-09T02:40:06.017Z,90.66
2017-08-09T02:41:06.020Z,90.56
2017-08-09T02:42:06.013Z,90.37
2017-08-09T02:43:06.018Z,89.89
2017-08-09T02:44:06.017Z,89.79
2017-08-09T02:45:06.074Z,90.28
2017-08-09T02:46:06.016Z,90.08
2017-08-09T02:47:06.025Z,89.32
2017-08-09T02:48:06.021Z,89.03
2017-08-09T02:49:06.023Z,89.12
2017-08-09T02:50:06.023Z,89.03
2017-08-09T02:51:06.025Z,89.03
2017-08-09T02:52:05.722Z,89.22
2017-08-09T02:53:06.027Z,89.89
2017-08-09T02:54:06.029Z,89.89
2017-08-09T02:55:05.733Z,89.89
2017-08-09T02:56:06.034Z,89.79
2017-08-09T02:57:06.033Z,90.56
2017-08-09T02:58:06.046Z,89.99
2017-08-09T02:59:06.039Z,90.08
2017-08-09T03:00:06.358Z,89.51
2017-08-09T03:01:06.040Z,89.99
2017-08-09T03:02:06.044Z,89.32
2017-08-09T03:03:05.741Z,89.32
2017-08-09T03:04:06.087Z,89.03
2017-08-09T03:05:06.145Z,89.32
2017-08-09T03:06:06.114Z,89.51
2017-08-09T03:07:05.751Z,89.79
2017-08-09T03:08:06.051Z,90.08
2017-08-09T03:09:06.055Z,90.08
2017-08-09T03:10:06.054Z,90.28
2017-08-09T03:11:06.054Z,90.75
2017-08-09T03:12:06.058Z,90.71
2017-08-09T03:13:06.057Z,90.42
2017-08-09T03:14:06.059Z,90.23
2017-08-09T03:15:06.111Z,91
2017-08-09T03:16:06.064Z,91.09
2017-08-09T03:17:06.066Z,91
2017-08-09T03:18:06.066Z,91
2017-08-09T03:19:06.066Z,90.71
2017-08-09T03:20:06.068Z,90.71
2017-08-09T03:21:05.769Z,90.9
2017-08-09T03:22:06.070Z,90.71
2017-08-09T03:23:06.076Z,90.9
2017-08-09T03:24:06.076Z,90.9
2017-08-09T03:25:06.076Z,90.71
2017-08-09T03:26:06.075Z,90.9
2017-08-09T03:27:06.078Z,90.9
2017-08-09T03:28:06.087Z,90.71
2017-08-09T03:29:06.081Z,90.42
2017-08-09T03:30:06.137Z,90.52
2017-08-09T03:31:06.087Z,90.61
2017-08-09T03:32:06.084Z,90.61
2017-08-09T03:33:06.088Z,90.71
2017-08-09T03:34:06.088Z,90.23
2017-08-09T03:35:06.091Z,90.52
2017-08-09T03:36:06.091Z,90.04
2017-08-09T03:37:06.093Z,89.85
2017-08-09T03:38:06.093Z,89.75
2017-08-09T03:39:06.099Z,89.75
2017-08-09T03:40:05.797Z,89.47
2017-08-09T03:41:06.097Z,90.23
2017-08-09T03:42:06.097Z,90.42
2017-08-09T03:43:06.102Z,90.04
2017-08-09T03:44:06.102Z,89.85
2017-08-09T03:45:08.961Z,90.42
2017-08-09T03:46:06.109Z,90.23
2017-08-09T03:47:06.106Z,90.52
2017-08-09T03:48:06.109Z,90.52
2017-08-09T03:49:06.114Z,90.71
2017-08-09T03:50:06.111Z,90.71
2017-08-09T03:51:06.115Z,90.9
2017-08-09T03:52:06.116Z,91
2017-08-09T03:53:06.117Z,91.19
2017-08-09T03:54:06.116Z,91.67
2017-08-09T03:55:06.119Z,91.67
2017-08-09T03:56:06.127Z,91.67
2017-08-09T03:57:06.130Z,91.67
2017-08-09T03:58:05.823Z,91.72
2017-08-09T03:59:06.122Z,91.67
2017-08-09T04:00:06.125Z,92.3
2017-08-09T04:01:06.127Z,92.63
2017-08-09T04:02:06.129Z,92.58
2017-08-09T04:03:06.130Z,92.39
2017-08-09T04:04:06.133Z,92.05
2017-08-09T04:05:06.135Z,92.63
2017-08-09T04:06:06.134Z,92.72
2017-08-09T04:07:06.137Z,93.01
2017-08-09T04:08:06.145Z,93.59
2017-08-09T04:09:06.141Z,93.4
2017-08-09T04:10:06.140Z,93.21
2017-08-09T04:11:06.141Z,93.01
2017-08-09T04:12:06.144Z,93.4
2017-08-09T04:13:06.143Z,93.21
2017-08-09T04:14:06.148Z,93.21
2017-08-09T04:15:06.151Z,93.11
2017-08-09T04:16:06.148Z,92.54
2017-08-09T04:17:06.149Z,92.15
2017-08-09T04:18:05.850Z,92.54
2017-08-09T04:19:06.153Z,92.05
2017-08-09T04:20:06.155Z,91.81
2017-08-09T04:21:06.155Z,91.48
2017-08-09T04:22:06.156Z,91.77
2017-08-09T04:23:06.168Z,91.72
2017-08-09T04:24:06.160Z,91.38
2017-08-09T04:25:06.161Z,91.81
2017-08-09T04:26:05.863Z,91.09
2017-08-09T04:27:05.864Z,91.86
2017-08-09T04:28:05.864Z,91.77
2017-08-09T04:29:06.167Z,91.48
2017-08-09T04:30:05.906Z,91.67
2017-08-09T04:31:06.221Z,92.15
2017-08-09T04:32:06.290Z,91.77
2017-08-09T04:33:06.172Z,92.34
2017-08-09T04:34:06.173Z,92.54
2017-08-09T04:35:05.872Z,92.54
2017-08-09T04:36:06.181Z,92.44
2017-08-09T04:37:06.178Z,93.3
2017-08-09T04:38:06.184Z,93.01
2017-08-09T04:39:05.879Z,93.11
2017-08-09T04:40:06.187Z,93.21
2017-08-09T04:41:06.186Z,93.11
2017-08-09T04:42:06.185Z,93.21
2017-08-09T04:43:06.187Z,93.3
2017-08-09T04:44:06.190Z,93.3
2017-08-09T04:45:06.193Z,92.82
2017-08-09T04:46:06.645Z,92.15
2017-08-09T04:47:06.195Z,92.54
2017-08-09T04:48:05.894Z,91.96
2017-08-09T04:49:06.201Z,91.86
2017-08-09T04:50:06.202Z,91.96
2017-08-09T04:51:06.204Z,91.86
2017-08-09T04:52:06.204Z,91.86
2017-08-09T04:53:06.200Z,91.67
2017-08-09T04:54:06.205Z,91.67
2017-08-09T04:55:06.206Z,91.86
2017-08-09T04:56:06.207Z,91.67
2017-08-09T04:57:06.207Z,91.48
2017-08-09T04:58:06.218Z,91.77
2017-08-09T04:59:06.212Z,91.77
2017-08-09T05:00:06.226Z,91.77
2017-08-09T05:01:05.964Z,91.77
2017-08-09T05:02:06.220Z,91.77
2017-08-09T05:03:06.216Z,91.77
2017-08-09T05:04:06.231Z,91.86
2017-08-09T05:05:06.227Z,91.57
2017-08-09T05:06:06.223Z,91.48
2017-08-09T05:07:06.231Z,91.48
2017-08-09T05:08:06.232Z,91.48
2017-08-09T05:09:06.228Z,91.91
2017-08-09T05:10:06.238Z,90.66
2017-08-09T05:11:06.235Z,91.33
2017-08-09T05:12:06.231Z,91.05
2017-08-09T05:13:06.234Z,90.56
2017-08-09T05:14:06.248Z,90.95
2017-08-09T05:15:06.237Z,90.42
2017-08-09T05:16:06.696Z,90.08
2017-08-09T05:17:06.248Z,89.94
2017-08-09T05:18:05.939Z,88.98
2017-08-09T05:19:06.249Z,88.98
2017-08-09T05:20:06.259Z,89.07
2017-08-09T05:21:06.252Z,89.46
2017-08-09T05:22:06.250Z,88.69
2017-08-09T05:23:06.255Z,88.31
2017-08-09T05:24:06.254Z,87.92
2017-08-09T05:25:06.258Z,87.58
2017-08-09T05:26:06.260Z,87.58
2017-08-09T05:27:06.260Z,87.1
2017-08-09T05:28:06.260Z,87.01
2017-08-09T05:29:06.264Z,86.62
2017-08-09T05:30:06.273Z,85.95
2017-08-09T05:31:08.087Z,85.85
2017-08-09T05:32:06.273Z,86.28
2017-08-09T05:33:06.281Z,85.89
2017-08-09T05:34:05.976Z,85.99
2017-08-09T05:35:05.979Z,85.32
2017-08-09T05:36:06.289Z,85.41
2017-08-09T05:37:06.282Z,84.84
2017-08-09T05:38:06.286Z,85.32
2017-08-09T05:39:06.290Z,85.03
2017-08-09T05:40:05.993Z,85.03
2017-08-09T05:41:06.293Z,84.94
2017-08-09T05:42:06.294Z,84.64
2017-08-09T05:43:06.296Z,85.22
2017-08-09T05:44:06.299Z,85.51
2017-08-09T05:45:06.305Z,85.22
2017-08-09T05:46:07.161Z,85.03
2017-08-09T05:47:06.015Z,84.45
2017-08-09T05:48:06.326Z,84.74
2017-08-09T05:49:06.311Z,83.97
2017-08-09T05:50:06.326Z,83.78
2017-08-09T05:51:06.012Z,83.49
2017-08-09T05:52:06.035Z,83.3
2017-08-09T05:53:06.326Z,83.59
2017-08-09T05:54:06.338Z,82.96
2017-08-09T05:55:06.331Z,82.76
2017-08-09T05:56:06.337Z,82.76
2017-08-09T05:57:06.335Z,82.38
2017-08-09T05:58:06.340Z,81.81
2017-08-09T05:59:06.342Z,81.71
2017-08-09T06:00:06.339Z,81.23
2017-08-09T06:01:06.351Z,81.13
2017-08-09T06:02:06.373Z,81.23
2017-08-09T06:03:06.352Z,81.81
2017-08-09T06:04:06.373Z,81.81
2017-08-09T06:05:06.381Z,82.09
2017-08-09T06:06:06.375Z,81.23
2017-08-09T06:07:06.057Z,81.23
2017-08-09T06:08:06.378Z,80.84
2017-08-09T06:09:06.375Z,80.55
2017-08-09T06:10:06.373Z,80.17
2017-08-09T06:11:06.377Z,80.17
2017-08-09T06:12:06.375Z,80.17
2017-08-09T06:13:06.389Z,80.17
2017-08-09T06:14:06.393Z,80.36
2017-08-09T06:15:06.388Z,80.17
2017-08-09T06:16:06.389Z,80.36
2017-08-09T06:17:06.393Z,79.5
2017-08-09T06:18:06.397Z,79.02
2017-08-09T06:19:06.396Z,78.83
2017-08-09T06:20:06.399Z,79.11
2017-08-09T06:21:06.397Z,78.73
2017-08-09T06:22:06.404Z,78.58
2017-08-09T06:23:06.414Z,78.96
2017-08-09T06:24:06.406Z,78.96
2017-08-09T06:25:06.441Z,78
2017-08-09T06:26:06.440Z,77.9
2017-08-09T06:27:06.417Z,76.94
2017-08-09T06:28:06.421Z,76.65
2017-08-09T06:29:06.440Z,75.98
2017-08-09T06:30:06.444Z,75.63
2017-08-09T06:31:06.445Z,75.44
2017-08-09T06:32:06.443Z,75.24
2017-08-09T06:33:06.132Z,75.34
2017-08-09T06:34:06.443Z,74.76
2017-08-09T06:35:06.455Z,75.44
2017-08-09T06:36:06.448Z,74.86
2017-08-09T06:37:06.463Z,73.46
2017-08-09T06:38:06.453Z,72.68
2017-08-09T06:39:06.460Z,72.78
2017-08-09T06:40:06.499Z,72.78
2017-08-09T06:41:06.490Z,72.84
2017-08-09T06:42:06.463Z,72.74
2017-08-09T06:43:06.467Z,72.36
2017-08-09T06:44:06.470Z,72.65
2017-08-09T06:45:06.484Z,72.74
2017-08-09T06:46:06.477Z,72.55
2017-08-09T06:47:06.487Z,72.36
2017-08-09T06:48:06.490Z,72.17
2017-08-09T06:49:06.489Z,72.36
2017-08-09T06:50:06.191Z,72.01
2017-08-09T06:51:06.500Z,71.04
2017-08-09T06:52:06.496Z,71.43
2017-08-09T06:53:06.205Z,69.51
2017-08-09T06:54:06.205Z,68.93
2017-08-09T06:55:06.511Z,69.12
2017-08-09T06:56:06.513Z,68.35
2017-08-09T06:57:06.215Z,68.44
2017-08-09T06:58:06.520Z,68.74
2017-08-09T06:59:06.220Z,68.84
2017-08-09T07:00:06.538Z,69.22
2017-08-09T07:01:06.534Z,68.48
2017-08-09T07:02:06.238Z,67.81
2017-08-09T07:03:06.538Z,68.48
2017-08-09T07:04:06.238Z,68.87
2017-08-09T07:05:06.554Z,68.58
2017-08-09T07:06:06.248Z,66.36
2017-08-09T07:07:06.255Z,66.65
2017-08-09T07:08:06.557Z,67.39
2017-08-09T07:09:06.260Z,67.77
2017-08-09T07:10:06.566Z,68.44
2017-08-09T07:11:06.582Z,67.97
2017-08-09T07:12:06.572Z,67.52
2017-08-09T07:13:06.274Z,67.33
2017-08-09T07:14:06.278Z,66.39
2017-08-09T07:15:06.587Z,64.47
2017-08-09T07:16:06.594Z,63.44
2017-08-09T07:17:06.593Z,63.54
2017-08-09T07:18:06.597Z,64.11
2017-08-09T07:19:06.600Z,64.28
2017-08-09T07:20:06.606Z,65.72
2017-08-09T07:21:06.306Z,65.88
2017-08-09T07:22:06.615Z,66.65
2017-08-09T07:23:06.615Z,66.81
2017-08-09T07:24:06.622Z,67.97
2017-08-09T07:25:06.647Z,68.16
2017-08-09T07:26:06.628Z,68.54
2017-08-09T07:27:06.331Z,68.64
2017-08-09T07:28:06.652Z,67.58
2017-08-09T07:29:06.651Z,67.77
2017-08-09T07:30:06.651Z,67.1
2017-08-09T07:31:06.654Z,67
2017-08-09T07:32:09.315Z,65.98
2017-08-09T07:33:06.658Z,66.27
2017-08-09T07:34:06.664Z,66.27
2017-08-09T07:35:06.665Z,66.17
2017-08-09T07:36:06.675Z,66.27
2017-08-09T07:37:06.673Z,66.81
2017-08-09T07:38:06.375Z,67.68
2017-08-09T07:39:06.684Z,68.16
2017-08-09T07:40:06.384Z,66.75
2017-08-09T07:41:06.690Z,66.71
2017-08-09T07:42:06.691Z,66.55
2017-08-09T07:43:06.700Z,66.07
2017-08-09T07:44:06.701Z,66.27
2017-08-09T07:45:06.707Z,66.07
2017-08-09T07:46:06.709Z,65.24
2017-08-09T07:47:07.113Z,64.47
2017-08-09T07:48:06.718Z,64.21
2017-08-09T07:49:06.721Z,62.96
2017-08-09T07:50:06.744Z,61.99
2017-08-09T07:51:06.730Z,61.35
2017-08-09T07:52:06.436Z,61.16
2017-08-09T07:53:06.734Z,62.12
2017-08-09T07:54:06.742Z,61.54
2017-08-09T07:55:06.751Z,61.09
2017-08-09T07:56:06.750Z,60.86
2017-08-09T07:57:06.758Z,61.64
2017-08-09T07:58:06.766Z,61.16
2017-08-09T07:59:06.764Z,62.51
2017-08-09T08:00:06.482Z,63.06
2017-08-09T08:01:06.774Z,62.96
2017-08-09T08:02:06.778Z,63.34
2017-08-09T08:03:06.780Z,64.21
2017-08-09T08:04:06.785Z,64.86
2017-08-09T08:05:06.803Z,64.86
2017-08-09T08:06:06.495Z,64.4
2017-08-09T08:07:06.802Z,63.54
2017-08-09T08:08:06.803Z,62.89
2017-08-09T08:09:06.814Z,62.22
2017-08-09T08:10:06.811Z,61.09
2017-08-09T08:11:06.817Z,60.61
2017-08-09T08:12:06.820Z,62.34
2017-08-09T08:13:06.824Z,61.67
2017-08-09T08:14:06.843Z,60.61
2017-08-09T08:15:06.857Z,60.89
2017-08-09T08:16:06.851Z,61.38
2017-08-09T08:17:06.549Z,61.38
2017-08-09T08:18:06.850Z,62.25
2017-08-09T08:19:06.551Z,62.31
2017-08-09T08:20:06.860Z,63.09
2017-08-09T08:21:06.865Z,62.76
2017-08-09T08:22:06.565Z,62.79
2017-08-09T08:23:06.872Z,62.12
2017-08-09T08:24:06.878Z,61.06
2017-08-09T08:25:06.881Z,60.96
2017-08-09T08:26:06.886Z,60.61
2017-08-09T08:27:06.886Z,60.03
2017-08-09T08:28:06.617Z,59.09
2017-08-09T08:29:06.903Z,58.61
2017-08-09T08:30:06.909Z,57.19
2017-08-09T08:31:06.910Z,57.54
2017-08-09T08:32:06.931Z,58.12
2017-08-09T08:33:06.941Z,57.57
2017-08-09T08:34:06.622Z,57.38
2017-08-09T08:35:06.940Z,57.38
2017-08-09T08:36:06.939Z,56.9
2017-08-09T08:37:06.941Z,57.19
2017-08-09T08:38:06.952Z,56.73
2017-08-09T08:39:06.643Z,55.87
2017-08-09T08:40:06.963Z,55.51
2017-08-09T08:41:06.663Z,54.53
2017-08-09T08:42:06.965Z,54.37
2017-08-09T08:43:06.666Z,52.82
2017-08-09T08:44:06.973Z,52.66
2017-08-09T08:45:06.987Z,51.52
2017-08-09T08:46:06.990Z,50.94
2017-08-09T08:47:07.006Z,50.87
2017-08-09T08:48:07.006Z,50.26
2017-08-09T08:49:06.714Z,50.09
2017-08-09T08:50:07.010Z,50.87
2017-08-09T08:51:07.014Z,50.35
2017-08-09T08:52:07.026Z,51.23
2017-08-09T08:53:07.023Z,50.35
2017-08-09T08:54:07.032Z,50.94
2017-08-09T08:55:07.035Z,49.99
2017-08-09T08:56:07.041Z,49.41
2017-08-09T08:57:07.046Z,50.09
2017-08-09T08:58:07.053Z,50.87
2017-08-09T08:59:07.064Z,50.19
2017-08-09T09:00:07.066Z,51.13
2017-08-09T09:01:07.072Z,51.4
2017-08-09T09:02:06.782Z,52.27
2017-08-09T09:03:09.135Z,52.63
2017-08-09T09:04:07.094Z,53.5
2017-08-09T09:05:07.094Z,53.89
2017-08-09T09:06:07.100Z,53.89
2017-08-09T09:07:07.106Z,53.5
2017-08-09T09:08:07.119Z,53.5
2017-08-09T09:09:07.117Z,52.85
2017-08-09T09:10:07.121Z,52.08
2017-08-09T09:11:07.132Z,51.32
2017-08-09T09:12:07.137Z,51.16
2017-08-09T09:13:07.142Z,50.48
2017-08-09T09:14:06.868Z,50.09
2017-08-09T09:15:07.158Z,51.13
2017-08-09T09:16:07.162Z,51.81
2017-08-09T09:17:07.172Z,51.72
2017-08-09T09:18:09.881Z,51.78
2017-08-09T09:19:07.187Z,52.36
2017-08-09T09:20:07.215Z,53.59
2017-08-09T09:21:06.892Z,54.35
2017-08-09T09:22:07.198Z,54.9
2017-08-09T09:23:07.210Z,55.77
2017-08-09T09:24:07.207Z,56.25
2017-08-09T09:25:07.216Z,56.63
2017-08-09T09:26:07.220Z,57.09
2017-08-09T09:27:07.228Z,56.32
2017-08-09T09:28:07.242Z,55.93
2017-08-09T09:29:07.232Z,56.35
2017-08-09T09:30:07.239Z,56.25
2017-08-09T09:31:07.242Z,55.77
2017-08-09T09:32:06.963Z,55.99
2017-08-09T09:33:07.255Z,54.44
2017-08-09T09:34:07.258Z,54.25
2017-08-09T09:35:07.263Z,54.35
2017-08-09T09:36:07.266Z,55.11
2017-08-09T09:37:07.276Z,54.44
2017-08-09T09:38:07.283Z,54.63
2017-08-09T09:39:06.986Z,54.15
2017-08-09T09:40:07.305Z,56.98
2017-08-09T09:41:07.296Z,55.11
2017-08-09T09:42:07.297Z,55.7
2017-08-09T09:43:07.004Z,55.11
2017-08-09T09:44:07.313Z,54.61
2017-08-09T09:45:07.313Z,54.9
2017-08-09T09:46:07.028Z,54.9
2017-08-09T09:47:07.324Z,55.19
2017-08-09T09:48:07.327Z,55.65
2017-08-09T09:49:07.330Z,56.61
2017-08-09T09:50:07.339Z,56.87
2017-08-09T09:51:07.342Z,57.54
2017-08-09T09:52:07.352Z,57.35
2017-08-09T09:53:07.352Z,56.96
2017-08-09T09:54:07.367Z,57.19
2017-08-09T09:55:07.365Z,56.22
2017-08-09T09:56:07.067Z,53.45
2017-08-09T09:57:07.383Z,53.96
2017-08-09T09:58:07.373Z,54.25
2017-08-09T09:59:07.380Z,53.96
2017-08-09T10:00:07.382Z,54.63
2017-08-09T10:01:07.387Z,55.47
2017-08-09T10:02:07.396Z,56.05
2017-08-09T10:03:07.397Z,54.99
2017-08-09T10:04:07.404Z,56.83
2017-08-09T10:05:07.410Z,55.19
2017-08-09T10:06:07.416Z,53.47
2017-08-09T10:07:07.426Z,52.82
2017-08-09T10:08:07.424Z,52.75
2017-08-09T10:09:07.436Z,51.5
2017-08-09T10:10:07.462Z,50.45
2017-08-09T10:11:07.446Z,50.07
2017-08-09T10:12:07.450Z,50.84
2017-08-09T10:13:07.467Z,50.72
2017-08-09T10:14:07.460Z,50.92
2017-08-09T10:15:07.461Z,51.3
2017-08-09T10:16:07.489Z,51.2
2017-08-09T10:17:07.486Z,51.56
2017-08-09T10:18:07.179Z,51.47
2017-08-09T10:19:07.631Z,52.24
2017-08-09T10:20:07.513Z,53.02
2017-08-09T10:21:07.194Z,51.76
2017-08-09T10:22:07.505Z,51.66
2017-08-09T10:23:07.504Z,51.56
2017-08-09T10:24:07.513Z,52.24
2017-08-09T10:25:07.519Z,50.62
2017-08-09T10:26:07.522Z,49.27
2017-08-09T10:27:07.539Z,50.04
2017-08-09T10:28:07.539Z,50.14
2017-08-09T10:29:07.238Z,50.92
2017-08-09T10:30:07.540Z,51.5
2017-08-09T10:31:07.550Z,51.5
2017-08-09T10:32:07.552Z,50.72
2017-08-09T10:33:07.555Z,50.52
2017-08-09T10:34:07.630Z,50.07
2017-08-09T10:35:07.575Z,51.04
2017-08-09T10:36:07.579Z,49.02
2017-08-09T10:37:07.588Z,47.96
2017-08-09T10:38:07.289Z,49.97
2017-08-09T10:39:07.315Z,51.04
2017-08-09T10:40:07.613Z,50.94
2017-08-09T10:41:07.619Z,50.26
2017-08-09T10:42:07.312Z,48.71
2017-08-09T10:43:07.316Z,48.13
2017-08-09T10:44:07.340Z,47.19
2017-08-09T10:45:07.322Z,47.28
2017-08-09T10:46:07.629Z,48.35
2017-08-09T10:47:07.635Z,48.42
2017-08-09T10:48:07.338Z,49.39
2017-08-09T10:49:08.646Z,50.43
2017-08-09T10:50:07.689Z,49.92
2017-08-09T10:51:07.682Z,50.02
2017-08-09T10:52:07.374Z,49.63
2017-08-09T10:53:07.680Z,48.01
2017-08-09T10:54:07.680Z,47.24
2017-08-09T10:55:07.804Z,47.14
2017-08-09T10:56:07.685Z,48.08
2017-08-09T10:57:07.389Z,49.15
2017-08-09T10:58:07.695Z,50.57
2017-08-09T10:59:07.699Z,50.35
2017-08-09T11:00:07.766Z,50.74
2017-08-09T11:01:07.721Z,51.23
2017-08-09T11:02:07.415Z,52.51
2017-08-09T11:03:07.723Z,53.69
2017-08-09T11:04:07.427Z,52.34
2017-08-09T11:05:07.869Z,51.01
2017-08-09T11:06:07.743Z,49.68
2017-08-09T11:07:07.750Z,48.52
2017-08-09T11:08:07.749Z,45.34
2017-08-09T11:09:07.756Z,46.12
2017-08-09T11:10:07.862Z,45.54
2017-08-09T11:11:07.772Z,45.71
2017-08-09T11:12:07.772Z,45.32
2017-08-09T11:13:07.774Z,44.67
2017-08-09T11:14:07.810Z,44.26
2017-08-09T11:15:07.873Z,45.34
2017-08-09T11:16:07.795Z,46.39
2017-08-09T11:17:07.794Z,46
2017-08-09T11:18:07.804Z,45.42
2017-08-09T11:19:07.507Z,45.88
2017-08-09T11:20:07.901Z,46.84
2017-08-09T11:21:07.817Z,47.5
2017-08-09T11:22:07.827Z,48.08
2017-08-09T11:23:07.832Z,48.95
2017-08-09T11:24:07.831Z,48.95
2017-08-09T11:25:07.595Z,47.69
2017-08-09T11:26:07.844Z,48.27
2017-08-09T11:27:07.858Z,48.83
2017-08-09T11:28:07.856Z,50.7
2017-08-09T11:29:07.576Z,49.63
2017-08-09T11:30:07.867Z,49.56
2017-08-09T11:31:07.875Z,48.79
2017-08-09T11:32:07.876Z,48.32
2017-08-09T11:33:07.888Z,48.32
2017-08-09T11:34:07.891Z,47.47
2017-08-09T11:35:07.978Z,46.31
2017-08-09T11:36:07.595Z,44.78
2017-08-09T11:37:07.908Z,45.17
2017-08-09T11:38:07.909Z,45.27
2017-08-09T11:39:07.914Z,44.2
2017-08-09T11:40:07.937Z,44.86
2017-08-09T11:41:07.937Z,45.83
2017-08-09T11:42:07.937Z,46.39
2017-08-09T11:43:07.947Z,46.39
2017-08-09T11:44:07.950Z,46.36
2017-08-09T11:45:08.056Z,46.84
2017-08-09T11:46:07.952Z,46.94
2017-08-09T11:47:07.665Z,46.46
2017-08-09T11:48:07.972Z,46.66
2017-08-09T11:49:07.972Z,46.08
2017-08-09T11:50:07.812Z,46.36
2017-08-09T11:51:08.010Z,45.49
2017-08-09T11:52:08.014Z,44.23
2017-08-09T11:53:07.692Z,43.68
2017-08-09T11:54:08.015Z,43.58
2017-08-09T11:55:07.801Z,43.09
2017-08-09T11:56:08.021Z,43
2017-08-09T11:57:08.017Z,43.58
2017-08-09T11:58:08.021Z,43
2017-08-09T11:59:08.032Z,42.61
2017-08-09T12:00:08.113Z,43
2017-08-09T12:01:08.047Z,45.05
2017-08-09T12:02:07.746Z,46.99
2017-08-09T12:03:08.061Z,46.12
2017-08-09T12:04:07.754Z,44.76
2017-08-09T12:05:08.367Z,44.57
2017-08-09T12:06:08.064Z,43.89
2017-08-09T12:07:08.078Z,43.31
2017-08-09T12:08:08.097Z,42.46
2017-08-09T12:09:08.113Z,42.55
2017-08-09T12:10:08.336Z,41.89
2017-08-09T12:11:07.792Z,40.83
2017-08-09T12:12:08.120Z,41.24
2017-08-09T12:13:08.106Z,40.08
2017-08-09T12:14:08.109Z,41.14
2017-08-09T12:15:07.935Z,42.03
2017-08-09T12:16:07.823Z,42.3
2017-08-09T12:17:08.147Z,46.67
2017-08-09T12:18:08.132Z,46.45
2017-08-09T12:19:08.148Z,45.68
2017-08-09T12:20:08.741Z,45.17
2017-08-09T12:21:08.156Z,45.85
2017-08-09T12:22:08.153Z,45.64
2017-08-09T12:23:08.166Z,46.99
2017-08-09T12:24:08.163Z,47.28
2017-08-09T12:25:08.170Z,46.89
2017-08-09T12:26:08.175Z,46.8
2017-08-09T12:27:08.187Z,45.92
2017-08-09T12:28:08.188Z,46.31
2017-08-09T12:29:08.188Z,45.92
2017-08-09T12:30:08.622Z,45.54
2017-08-09T12:31:08.204Z,46.51
2017-08-09T12:32:07.905Z,46.6
2017-08-09T12:33:08.209Z,46.77
2017-08-09T12:34:08.218Z,47.16
2017-08-09T12:35:10.622Z,47.64
2017-08-09T12:36:08.229Z,47.55
2017-08-09T12:37:08.237Z,46.87
2017-08-09T12:38:08.241Z,46.97
2017-08-09T12:39:08.242Z,46.97
2017-08-09T12:40:08.437Z,46.97
2017-08-09T12:41:08.256Z,47.16
2017-08-09T12:42:07.960Z,47.36
2017-08-09T12:43:08.267Z,46.77
2017-08-09T12:44:08.269Z,46.77
2017-08-09T12:45:08.276Z,46.67
2017-08-09T12:46:08.303Z,47.26
2017-08-09T12:47:08.286Z,47.26
2017-08-09T12:48:08.289Z,47.24
2017-08-09T12:49:08.294Z,47.52
2017-08-09T12:50:08.448Z,48.11
2017-08-09T12:51:08.005Z,48.11
2017-08-09T12:52:08.310Z,48.01
2017-08-09T12:53:08.315Z,48.11
2017-08-09T12:54:08.028Z,47.72
2017-08-09T12:55:08.429Z,48.2